Time;durP1;ratioP1;P1;durP2;ratioP2;P2;SDS_P1;SDS_P2;PMS_P1;PMS_P2;Temp;Humidity;BMP_temperature;BMP_pressure;BME280_temperature;BME280_humidity;BME280_pressure;Samples;Min_cycle;Max_cycle;Signal;HPM_P1;HPM_P2
2023/05/18 00:00:13;;;;;;;5.40;2.80;;;;;;;10.49;nan;100037.09;5058343;28;20318;-81
2023/05/18 00:02:39;;;;;;;3.03;2.55;;;;;;;10.46;nan;100027.59;5061535;28;20242;-83
2023/05/18 00:05:11;;;;;;;5.30;3.30;;;;;;;10.41;nan;100021.75;5062618;28;21195;-81
2023/05/18 00:07:36;;;;;;;5.35;2.35;;;;;;;10.40;nan;100018.28;5062640;28;20478;-80
2023/05/18 00:10:02;;;;;;;5.53;2.50;;;;;;;10.37;nan;100010.59;5069474;28;20209;-81
2023/05/18 00:12:27;;;;;;;5.93;3.70;;;;;;;10.34;nan;100018.66;5069106;28;20200;-81
2023/05/18 00:14:53;;;;;;;8.10;2.63;;;;;;;10.33;nan;100010.84;5069029;28;20237;-82
2023/05/18 00:17:19;;;;;;;5.40;3.00;;;;;;;10.29;nan;100014.56;5069142;28;20207;-81
2023/05/18 00:19:45;;;;;;;5.90;3.10;;;;;;;10.24;nan;100012.19;5069453;28;20201;-80
2023/05/18 00:22:16;;;;;;;5.50;3.53;;;;;;;10.21;nan;100012.34;5066384;28;20208;-82
2023/05/18 00:24:42;;;;;;;3.85;2.83;;;;;;;10.16;nan;100015.22;5047634;28;20240;-82
2023/05/18 00:27:07;;;;;;;7.00;3.47;;;;;;;10.14;nan;100009.19;5065501;28;20204;-79
2023/05/18 00:29:33;;;;;;;5.27;3.73;;;;;;;10.09;nan;100007.75;5068752;28;20345;-80
2023/05/18 00:31:58;;;;;;;5.53;3.23;;;;;;;10.04;nan;99999.28;5048081;28;20394;-80
2023/05/18 00:34:24;;;;;;;6.10;3.50;;;;;;;10.01;nan;100004.72;5060619;28;20240;-81
2023/05/18 00:36:49;;;;;;;4.57;2.90;;;;;;;9.97;nan;99999.63;5044127;28;20244;-81
2023/05/18 00:39:15;;;;;;;4.20;3.20;;;;;;;9.94;nan;99999.81;5064519;28;20235;-81
2023/05/18 00:41:40;;;;;;;3.73;2.70;;;;;;;9.85;nan;100002.91;5065152;28;20220;-79
2023/05/18 00:44:06;;;;;;;3.23;2.67;;;;;;;9.81;nan;100004.03;5044594;28;20229;-79
2023/05/18 00:46:31;;;;;;;4.60;2.33;;;;;;;9.79;nan;100003.25;5045396;28;20600;-79
2023/05/18 00:48:57;;;;;;;5.70;3.40;;;;;;;9.80;nan;100007.56;5077244;28;20212;-79
2023/05/18 00:51:23;;;;;;;6.25;2.42;;;;;;;9.81;nan;100001.41;5074211;28;20581;-81
2023/05/18 00:53:52;;;;;;;5.53;3.30;;;;;;;9.79;nan;100000.63;5061331;28;20361;-81
2023/05/18 00:56:18;;;;;;;4.72;2.90;;;;;;;9.75;nan;99997.34;5026573;28;20303;-81
2023/05/18 00:58:44;;;;;;;5.63;3.35;;;;;;;9.74;nan;99997.41;5043099;28;20492;-82
2023/05/18 01:01:10;;;;;;;7.22;3.28;;;;;;;9.71;nan;100000.22;5063227;28;20288;-81
2023/05/18 01:03:37;;;;;;;7.43;3.53;;;;;;;9.65;nan;100003.16;5044433;28;20243;-81
2023/05/18 01:06:08;;;;;;;3.55;2.58;;;;;;;9.59;nan;99993.00;5042593;28;20592;-80
2023/05/18 01:08:35;;;;;;;7.57;3.40;;;;;;;9.56;nan;99993.16;5060089;28;20438;-81
2023/05/18 01:11:10;;;;;;;6.22;3.47;;;;;;;9.48;nan;99983.94;5043152;28;20293;-80
2023/05/18 01:13:58;;;;;;;4.45;3.28;;;;;;;9.42;nan;99994.72;5057952;28;20297;-80
2023/05/18 01:16:32;;;;;;;4.40;3.00;;;;;;;9.31;nan;99997.06;5040128;28;20301;-81
2023/05/18 01:19:12;;;;;;;5.53;3.42;;;;;;;9.27;nan;99988.53;5059352;28;20764;-80
2023/05/18 01:22:07;;;;;;;5.28;2.80;;;;;;;9.24;nan;99988.69;5060313;28;20189;-81
2023/05/18 01:24:47;;;;;;;4.10;1.85;;;;;;;9.19;nan;99985.44;5042359;28;20252;-81
2023/05/18 01:27:16;;;;;;;3.20;2.55;;;;;;;9.16;nan;99990.00;5057167;28;20200;-79
2023/05/18 01:29:44;;;;;;;5.50;2.83;;;;;;;9.18;nan;99990.75;5041669;28;20197;-81
2023/05/18 01:32:18;;;;;;;3.83;2.85;;;;;;;9.19;nan;99979.38;5059735;28;20200;-81
2023/05/18 01:34:43;;;;;;;5.57;3.90;;;;;;;9.22;nan;99982.66;5042364;28;20541;-79
2023/05/18 01:37:08;;;;;;;4.97;3.87;;;;;;;9.25;nan;99989.53;5044659;28;20638;-80
2023/05/18 01:39:34;;;;;;;4.57;2.90;;;;;;;9.23;nan;99980.88;5067108;28;20224;-81
2023/05/18 01:42:05;;;;;;;5.30;4.20;;;;;;;9.19;nan;99984.63;5048480;28;20626;-79
2023/05/18 01:44:38;;;;;;;4.30;2.50;;;;;;;9.17;nan;99984.69;5044791;28;20825;-80
2023/05/18 01:47:11;;;;;;;4.40;3.25;;;;;;;9.16;nan;99976.91;5062974;28;20570;-80
2023/05/18 01:49:58;;;;;;;2.95;2.63;;;;;;;9.15;nan;99980.44;5063378;28;20207;-81
2023/05/18 01:52:31;;;;;;;5.50;3.20;;;;;;;9.13;nan;99975.28;5064533;28;21020;-79
2023/05/18 01:55:00;;;;;;;4.78;3.75;;;;;;;9.12;nan;99967.50;5064953;28;20231;-79
2023/05/18 01:57:28;;;;;;;3.65;2.90;;;;;;;9.11;nan;99973.69;5063282;28;20215;-79
2023/05/18 01:59:55;;;;;;;5.55;2.80;;;;;;;9.09;nan;99969.34;5044614;28;20262;-81
2023/05/18 02:02:21;;;;;;;5.68;2.92;;;;;;;9.08;nan;99972.91;5041544;28;20212;-79
2023/05/18 02:04:48;;;;;;;5.80;3.03;;;;;;;9.06;nan;99972.13;5043956;28;20379;-81
2023/05/18 02:07:13;;;;;;;8.13;3.55;;;;;;;9.05;nan;99959.13;5057311;28;20861;-81
2023/05/18 02:09:39;;;;;;;9.40;3.53;;;;;;;9.02;nan;99954.03;5040844;28;20311;-80
2023/05/18 02:12:05;;;;;;;5.87;3.43;;;;;;;9.00;nan;99955.88;5041975;28;20700;-81
2023/05/18 02:14:31;;;;;;;6.90;3.27;;;;;;;8.95;nan;99955.28;5039133;28;20215;-79
2023/05/18 02:16:56;;;;;;;5.27;3.90;;;;;;;8.93;nan;99955.34;5041287;28;20473;-81
2023/05/18 02:19:22;;;;;;;6.87;3.90;;;;;;;8.92;nan;99956.28;5040476;28;20214;-81
2023/05/18 02:21:47;;;;;;;11.10;4.00;;;;;;;8.88;nan;99954.72;5041696;28;20265;-81
2023/05/18 02:24:13;;;;;;;5.20;3.50;;;;;;;8.84;nan;99959.28;5042034;28;20338;-81
2023/05/18 02:26:38;;;;;;;5.80;3.60;;;;;;;8.83;nan;99961.97;5061884;28;20212;-84
2023/05/18 02:29:10;;;;;;;7.87;3.90;;;;;;;8.78;nan;99951.75;5038005;28;20466;-82
2023/05/18 02:31:36;;;;;;;5.32;3.78;;;;;;;8.76;nan;99955.38;5055203;28;20221;-84
2023/05/18 02:34:02;;;;;;;5.03;3.63;;;;;;;8.76;nan;99955.38;5064309;28;20220;-82
2023/05/18 02:36:38;;;;;;;6.73;5.00;;;;;;;8.79;nan;99957.81;5041297;28;20452;-84
2023/05/18 02:39:05;;;;;;;6.07;4.25;;;;;;;8.80;nan;99951.66;5043625;28;20527;-82
2023/05/18 02:41:32;;;;;;;7.50;3.70;;;;;;;8.82;nan;99949.81;5044020;28;20209;-82
2023/05/18 02:43:57;;;;;;;5.38;4.30;;;;;;;8.81;nan;99945.50;5061314;28;20467;-85
2023/05/18 02:46:24;;;;;;;9.10;4.00;;;;;;;8.80;nan;99942.03;5045185;28;20279;-82
2023/05/18 02:48:49;;;;;;;5.23;3.57;;;;;;;8.77;nan;99942.19;5044256;28;20446;-85
2023/05/18 02:51:14;;;;;;;4.20;3.30;;;;;;;8.74;nan;99944.13;5048016;28;20212;-82
2023/05/18 02:53:42;;;;;;;5.83;2.83;;;;;;;8.69;nan;99941.72;5043703;28;20589;-84
2023/05/18 02:56:11;;;;;;;5.40;3.33;;;;;;;8.66;nan;99938.41;5046217;28;20463;-86
2023/05/18 02:58:49;;;;;;;3.78;3.30;;;;;;;8.63;nan;99942.88;5045289;28;20214;-82
2023/05/18 03:01:19;;;;;;;5.18;3.13;;;;;;;8.64;nan;99938.47;5046370;28;20209;-83
2023/05/18 03:03:50;;;;;;;5.93;3.28;;;;;;;8.62;nan;99949.03;5043018;28;20249;-85
2023/05/18 03:06:15;;;;;;;8.93;4.50;;;;;;;8.65;nan;99940.19;5044477;28;20434;-82
2023/05/18 03:08:42;;;;;;;5.40;3.55;;;;;;;8.66;nan;99946.28;5063448;28;20221;-83
2023/05/18 03:11:09;;;;;;;6.53;3.30;;;;;;;8.63;nan;99940.25;5045126;28;20312;-82
2023/05/18 03:13:35;;;;;;;4.13;2.50;;;;;;;8.62;nan;99938.56;5044115;28;20218;-84
2023/05/18 03:16:00;;;;;;;3.83;3.43;;;;;;;8.61;nan;99936.03;5043862;28;20475;-84
2023/05/18 03:18:26;;;;;;;8.23;4.30;;;;;;;8.58;nan;99937.03;5043486;28;20227;-82
2023/05/18 03:20:52;;;;;;;6.18;3.13;;;;;;;8.54;nan;99930.25;5042263;28;20686;-82
2023/05/18 03:23:21;;;;;;;5.23;3.77;;;;;;;8.53;nan;99938.19;5058662;28;20201;-83
2023/05/18 03:25:54;;;;;;;4.28;3.45;;;;;;;8.51;nan;99935.66;5044095;28;20741;-82
2023/05/18 03:28:21;;;;;;;9.95;4.45;;;;;;;8.50;nan;99933.94;5042049;28;20219;-83
2023/05/18 03:30:46;;;;;;;6.37;4.50;;;;;;;8.47;nan;99930.63;5043928;28;20456;-85
2023/05/18 03:33:12;;;;;;;7.07;4.93;;;;;;;8.43;nan;99921.25;5063702;28;20278;-82
2023/05/18 03:35:39;;;;;;;7.13;3.80;;;;;;;8.41;nan;99924.78;5063013;28;20478;-84
2023/05/18 03:38:08;;;;;;;5.72;4.05;;;;;;;8.42;nan;99928.25;5045851;28;20472;-85
2023/05/18 03:40:35;;;;;;;4.35;3.80;;;;;;;8.44;nan;99928.19;5048472;28;20277;-85
2023/05/18 03:43:00;;;;;;;4.67;3.70;;;;;;;8.46;nan;99927.19;5046126;28;20609;-82
2023/05/18 03:45:26;;;;;;;9.93;4.43;;;;;;;8.47;nan;99934.09;5059064;28;20894;-85
2023/05/18 03:47:52;;;;;;;9.70;5.90;;;;;;;8.48;nan;99938.44;5046542;28;20222;-84
2023/05/18 03:50:17;;;;;;;4.27;3.20;;;;;;;8.48;nan;99950.66;5065476;28;20597;-85
2023/05/18 03:52:43;;;;;;;5.27;4.47;;;;;;;8.45;nan;99950.81;5043340;28;20316;-82
2023/05/18 03:55:10;;;;;;;3.20;2.70;;;;;;;8.40;nan;99954.50;5047642;28;20441;-82
2023/05/18 03:57:37;;;;;;;5.00;4.03;;;;;;;8.29;nan;99953.28;5045851;28;21065;-82
2023/05/18 04:00:06;;;;;;;5.70;4.20;;;;;;;8.20;nan;99960.66;5046540;28;20225;-85
2023/05/18 04:02:42;;;;;;;5.10;4.03;;;;;;;8.06;nan;99955.25;5065108;28;20485;-82
2023/05/18 04:05:08;;;;;;;5.32;4.50;;;;;;;8.01;nan;99961.63;5062674;28;20414;-84
2023/05/18 04:07:42;;;;;;;6.50;4.30;;;;;;;7.94;nan;99959.31;5063995;28;20260;-85
2023/05/18 04:10:08;;;;;;;7.25;4.40;;;;;;;7.95;nan;99965.38;5028585;28;20541;-84
2023/05/18 04:12:41;;;;;;;4.60;4.05;;;;;;;7.94;nan;99961.09;5064988;28;20285;-82
2023/05/18 04:15:07;;;;;;;4.78;4.15;;;;;;;7.94;nan;99967.16;5045665;28;20210;-83
2023/05/18 04:17:34;;;;;;;7.73;4.93;;;;;;;7.90;nan;99964.75;5047000;28;20975;-82
2023/05/18 04:20:02;;;;;;;9.35;5.32;;;;;;;7.85;nan;99964.94;5064328;28;20462;-85
2023/05/18 04:22:30;;;;;;;6.22;4.13;;;;;;;7.80;nan;99973.94;5046470;28;20177;-82
2023/05/18 04:24:56;;;;;;;6.10;4.20;;;;;;;7.75;nan;99974.16;5047380;28;21106;-85
2023/05/18 04:27:21;;;;;;;6.13;3.60;;;;;;;7.75;nan;99963.72;5047460;28;20198;-82
2023/05/18 04:29:48;;;;;;;5.68;4.25;;;;;;;7.76;nan;99974.06;5044176;28;20750;-82
2023/05/18 04:32:17;;;;;;;7.57;4.68;;;;;;;7.78;nan;99974.03;5046184;28;20201;-85
2023/05/18 04:34:42;;;;;;;6.50;4.82;;;;;;;7.83;nan;99976.41;5044846;28;20439;-82
2023/05/18 04:37:09;;;;;;;5.30;4.27;;;;;;;7.91;nan;99971.66;5046072;28;20216;-82
2023/05/18 04:39:38;;;;;;;9.80;3.75;;;;;;;7.92;nan;99978.59;5045789;28;20210;-85
2023/05/18 04:42:06;;;;;;;6.40;5.03;;;;;;;8.02;nan;99984.22;5044755;28;20693;-82
2023/05/18 04:44:36;;;;;;;7.20;4.50;;;;;;;8.31;nan;99981.06;5063143;28;20221;-83
2023/05/18 04:47:03;;;;;;;8.63;5.47;;;;;;;8.76;nan;99984.19;5044723;28;20218;-82
2023/05/18 04:49:31;;;;;;;5.70;4.23;;;;;;;9.21;nan;99980.16;5060544;28;20200;-84
2023/05/18 04:51:58;;;;;;;8.57;5.10;;;;;;;9.71;nan;99979.22;5065254;28;20460;-82
2023/05/18 04:54:27;;;;;;;5.57;4.20;;;;;;;10.16;nan;99978.47;5060893;28;20790;-83
2023/05/18 04:56:53;;;;;;;8.35;5.53;;;;;;;10.62;nan;99982.91;5044824;28;20288;-84
2023/05/18 04:59:18;;;;;;;5.07;4.40;;;;;;;11.11;nan;99987.91;5045733;28;20288;-82
2023/05/18 05:01:45;;;;;;;6.33;5.03;;;;;;;11.58;nan;99980.69;5045764;28;20197;-83
2023/05/18 05:04:10;;;;;;;6.60;4.53;;;;;;;12.03;nan;99984.06;5044653;28;20198;-84
2023/05/18 05:06:36;;;;;;;5.50;4.90;;;;;;;12.48;nan;99974.97;5045788;28;20315;-84
2023/05/18 05:09:01;;;;;;;7.50;4.40;;;;;;;12.89;nan;99976.66;5066113;28;20203;-82
2023/05/18 05:11:27;;;;;;;6.40;3.53;;;;;;;13.23;nan;99977.84;5066204;28;20229;-82
2023/05/18 05:13:52;;;;;;;6.87;4.17;;;;;;;13.57;nan;99985.25;5062975;28;20221;-84
2023/05/18 05:16:18;;;;;;;5.17;3.97;;;;;;;13.87;nan;99984.88;5045357;28;20201;-82
2023/05/18 05:18:43;;;;;;;7.27;5.47;;;;;;;14.22;nan;99989.41;5062904;28;20283;-84
2023/05/18 05:21:08;;;;;;;4.43;3.70;;;;;;;14.59;nan;99990.22;5046366;28;20796;-82
2023/05/18 05:23:34;;;;;;;8.83;4.27;;;;;;;14.95;nan;99991.06;5043647;28;20206;-82
2023/05/18 05:26:00;;;;;;;6.80;4.60;;;;;;;15.21;nan;99994.38;5063092;28;20207;-81
2023/05/18 05:28:26;;;;;;;4.75;4.00;;;;;;;15.13;nan;99994.13;5041654;28;20223;-83
2023/05/18 05:30:51;;;;;;;5.37;3.97;;;;;;;15.17;nan;99984.97;5062332;28;20217;-85
2023/05/18 05:33:17;;;;;;;9.30;6.50;;;;;;;15.37;nan;99986.09;5044885;28;20210;-82
2023/05/18 05:35:43;;;;;;;5.10;4.13;;;;;;;15.57;nan;99985.38;5043623;28;20212;-82
2023/05/18 05:38:09;;;;;;;6.77;4.67;;;;;;;15.82;nan;99983.47;5043944;28;20233;-81
2023/05/18 05:40:34;;;;;;;7.40;5.03;;;;;;;15.96;nan;99977.06;5044830;28;21010;-83
2023/05/18 05:43:00;;;;;;;6.30;4.33;;;;;;;16.07;nan;99980.56;5057925;28;20213;-82
2023/05/18 05:45:27;;;;;;;5.50;4.80;;;;;;;16.27;nan;99975.44;5043213;28;20235;-82
2023/05/18 05:47:56;;;;;;;5.00;4.38;;;;;;;16.48;nan;99963.06;5041057;28;20297;-84
2023/05/18 05:50:23;;;;;;;5.45;3.88;;;;;;;16.69;nan;99965.75;5042347;28;20889;-82
2023/05/18 05:52:50;;;;;;;6.35;4.32;;;;;;;16.93;nan;99960.25;5026978;28;20650;-85
2023/05/18 05:55:16;;;;;;;4.45;3.58;;;;;;;17.22;nan;99957.75;5040268;28;20225;-84
2023/05/18 05:57:41;;;;;;;5.10;4.00;;;;;;;17.41;nan;99954.34;5042418;28;20284;-82
2023/05/18 06:00:10;;;;;;;6.07;4.15;;;;;;;17.61;nan;99957.09;5039909;28;21295;-85
2023/05/18 06:02:46;;;;;;;5.25;3.25;;;;;;;17.77;nan;99954.78;5059021;28;20218;-85
2023/05/18 06:05:12;;;;;;;5.55;4.43;;;;;;;17.98;nan;99956.53;5039825;28;20443;-82
2023/05/18 06:07:37;;;;;;;6.43;4.40;;;;;;;18.11;nan;99952.63;5039959;28;20191;-84
2023/05/18 06:10:03;;;;;;;5.87;4.40;;;;;;;18.18;nan;99947.63;5058188;28;20739;-82
2023/05/18 06:12:28;;;;;;;5.97;4.33;;;;;;;18.29;nan;99949.31;5040787;28;20692;-82
2023/05/18 06:14:57;;;;;;;4.53;4.07;;;;;;;18.37;nan;99943.28;5040816;28;20243;-85
2023/05/18 06:17:25;;;;;;;7.63;4.43;;;;;;;18.41;nan;99942.03;5040980;28;20215;-84
2023/05/18 06:19:50;;;;;;;6.57;4.07;;;;;;;18.49;nan;99956.28;5058821;28;20325;-86
2023/05/18 06:22:16;;;;;;;4.40;3.53;;;;;;;18.72;nan;99946.22;5042636;28;20766;-81
2023/05/18 06:24:53;;;;;;;7.50;4.22;;;;;;;18.87;nan;99946.63;5042770;28;20323;-82
2023/05/18 06:27:45;;;;;;;4.27;3.87;;;;;;;19.02;nan;99947.03;5041030;28;20219;-83
2023/05/18 06:30:19;;;;;;;7.00;4.00;;;;;;;19.18;nan;99941.94;5040760;28;20457;-83
2023/05/18 06:33:09;;;;;;;4.53;3.00;;;;;;;19.27;nan;99944.72;5039552;28;20465;-82
2023/05/18 06:35:35;;;;;;;6.53;3.80;;;;;;;19.35;nan;99952.84;5045153;28;20803;-85
2023/05/18 06:38:01;;;;;;;4.70;3.30;;;;;;;19.41;nan;99944.25;5042466;28;20851;-85
2023/05/18 06:40:27;;;;;;;6.50;4.40;;;;;;;19.44;nan;99946.63;5062061;28;20592;-82
2023/05/18 06:42:52;;;;;;;4.17;3.57;;;;;;;19.55;nan;99946.44;5042469;28;20759;-83
2023/05/18 06:45:23;;;;;;;4.33;3.93;;;;;;;19.83;nan;99941.16;5043878;28;20737;-85
2023/05/18 06:47:51;;;;;;;4.80;4.30;;;;;;;20.04;nan;99943.56;5044599;28;20422;-84
2023/05/18 06:50:17;;;;;;;4.30;3.87;;;;;;;19.98;nan;99947.66;5040438;28;20464;-84
2023/05/18 06:52:43;;;;;;;5.27;3.80;;;;;;;19.99;nan;99941.34;5042622;28;20215;-82
2023/05/18 06:55:09;;;;;;;5.80;4.00;;;;;;;20.04;nan;99946.22;5041841;28;20234;-82
2023/05/18 06:57:34;;;;;;;5.20;3.93;;;;;;;20.11;nan;99942.78;5041647;28;20462;-86
2023/05/18 07:00:00;;;;;;;4.90;3.70;;;;;;;20.27;nan;99951.94;5043675;28;20745;-82
2023/05/18 07:02:27;;;;;;;4.80;4.40;;;;;;;20.44;nan;99940.44;5042622;28;20588;-82
2023/05/18 07:04:53;;;;;;;7.40;3.53;;;;;;;20.69;nan;99932.69;5046018;28;21158;-84
2023/05/18 07:07:19;;;;;;;8.03;3.30;;;;;;;20.88;nan;99940.50;5044356;28;20450;-83
2023/05/18 07:09:44;;;;;;;6.43;3.93;;;;;;;20.95;nan;99932.69;5061581;28;20211;-85
2023/05/18 07:12:11;;;;;;;5.10;3.40;;;;;;;21.06;nan;99940.44;5068871;28;20221;-82
2023/05/18 07:14:36;;;;;;;4.17;3.30;;;;;;;21.00;nan;99938.41;5066801;28;20218;-83
2023/05/18 07:17:03;;;;;;;5.27;4.10;;;;;;;20.80;nan;99929.75;5067602;28;20485;-82
2023/05/18 07:19:28;;;;;;;7.63;4.13;;;;;;;20.58;nan;99939.09;5068392;28;20193;-83
2023/05/18 07:21:55;;;;;;;5.47;3.37;;;;;;;20.36;nan;99936.84;5066411;28;20464;-85
2023/05/18 07:24:21;;;;;;;4.37;3.97;;;;;;;20.23;nan;99938.09;5069404;28;20333;-83
2023/05/18 07:26:46;;;;;;;5.87;4.27;;;;;;;20.18;nan;99932.34;5067672;28;20566;-83
2023/05/18 07:29:12;;;;;;;4.60;3.70;;;;;;;20.24;nan;99923.75;5068099;28;20231;-84
2023/05/18 07:31:39;;;;;;;5.97;4.53;;;;;;;20.16;nan;99921.00;5066838;28;20286;-82
2023/05/18 07:34:06;;;;;;;4.40;3.50;;;;;;;20.21;nan;99928.56;5067595;28;20477;-84
2023/05/18 07:36:32;;;;;;;5.80;3.70;;;;;;;20.28;nan;99918.94;5070470;28;21250;-84
2023/05/18 07:38:59;;;;;;;9.77;3.93;;;;;;;20.18;nan;99923.53;5054500;28;20494;-82
2023/05/18 07:41:25;;;;;;;4.22;3.83;;;;;;;20.15;nan;99921.16;5069491;28;20482;-80
2023/05/18 07:43:51;;;;;;;7.00;3.50;;;;;;;20.31;nan;99921.31;5064957;28;20301;-82
2023/05/18 07:46:17;;;;;;;6.30;3.73;;;;;;;20.50;nan;99918.47;5067403;28;20505;-84
2023/05/18 07:48:43;;;;;;;7.57;3.60;;;;;;;20.67;nan;99916.81;5062474;28;20491;-81
2023/05/18 07:51:09;;;;;;;3.60;3.00;;;;;;;20.85;nan;99916.78;5067453;28;20467;-83
2023/05/18 07:53:36;;;;;;;4.03;3.67;;;;;;;20.98;nan;99909.19;5066082;28;20475;-85
2023/05/18 07:56:03;;;;;;;5.10;2.90;;;;;;;21.07;nan;99906.56;5068845;28;20684;-83
2023/05/18 07:58:28;;;;;;;3.73;3.27;;;;;;;21.19;nan;99908.78;5066950;28;20530;-84
2023/05/18 08:00:54;;;;;;;5.90;3.53;;;;;;;21.32;nan;99910.22;5048490;28;21015;-86
2023/05/18 08:03:19;;;;;;;4.80;3.40;;;;;;;21.45;nan;99913.31;5066131;28;20452;-82
2023/05/18 08:05:45;;;;;;;4.90;3.70;;;;;;;21.58;nan;99908.34;5067020;28;20437;-84
2023/05/18 08:08:14;;;;;;;5.93;3.30;;;;;;;21.61;nan;99915.22;5068366;28;20195;-83
2023/05/18 08:10:40;;;;;;;6.90;3.07;;;;;;;21.57;nan;99906.66;5068701;28;20464;-86
2023/05/18 08:13:06;;;;;;;4.40;3.53;;;;;;;21.59;nan;99903.84;5066341;28;20475;-86
2023/05/18 08:15:32;;;;;;;3.87;3.57;;;;;;;21.54;nan;99900.81;5071416;28;20828;-82
2023/05/18 08:17:57;;;;;;;4.67;3.20;;;;;;;21.38;nan;99902.41;5068504;28;20484;-82
2023/05/18 08:20:24;;;;;;;5.53;3.10;;;;;;;21.16;nan;99895.75;5065635;28;20217;-82
2023/05/18 08:22:49;;;;;;;3.90;3.23;;;;;;;20.85;nan;99900.75;5064311;28;20270;-86
2023/05/18 08:25:15;;;;;;;4.77;2.63;;;;;;;20.30;nan;99890.28;5098842;22;20612;-78
2023/05/18 08:27:40;;;;;;;6.33;2.97;;;;;;;20.12;nan;99895.63;5051388;28;20231;-78
2023/05/18 08:30:07;;;;;;;10.23;3.60;;;;;;;20.09;nan;99891.44;5066952;28;20227;-79
2023/05/18 08:32:35;;;;;;;7.07;3.17;;;;;;;19.80;nan;99874.81;5074000;28;20204;-78
2023/05/18 08:35:03;;;;;;;4.17;3.30;;;;;;;19.72;nan;99893.38;5076864;28;20459;-78
2023/05/18 08:37:29;;;;;;;4.17;2.80;;;;;;;19.57;nan;99899.16;5075119;28;20474;-78
2023/05/18 08:39:55;;;;;;;3.97;3.33;;;;;;;19.49;nan;99898.22;5072834;28;20978;-79
2023/05/18 08:42:28;;;;;;;5.43;3.40;;;;;;;19.37;nan;99893.09;5075803;28;20485;-78
2023/05/18 08:45:32;;;;;;;5.07;3.70;;;;;;;19.33;nan;99899.69;5057801;28;21005;-79
2023/05/18 08:48:00;;;;;;;4.30;3.90;;;;;;;19.05;nan;99882.03;5075273;28;20475;-79
2023/05/18 08:50:28;;;;;;;4.67;3.20;;;;;;;19.15;nan;99882.84;5074157;28;20463;-79
2023/05/18 08:52:58;;;;;;;7.50;3.93;;;;;;;19.24;nan;99885.44;5075830;28;21373;-80
2023/05/18 08:55:24;;;;;;;3.33;2.83;;;;;;;19.23;nan;99875.78;5055369;28;20467;-78
2023/05/18 08:57:56;;;;;;;3.60;3.23;;;;;;;19.24;nan;99888.09;5075965;28;20848;-79
2023/05/18 09:00:23;;;;;;;5.00;3.33;;;;;;;19.41;nan;99878.47;5074155;28;20235;-79
2023/05/18 09:02:49;;;;;;;3.23;2.93;;;;;;;19.70;nan;99874.88;5051543;28;20456;-79
2023/05/18 09:05:16;;;;;;;3.70;3.00;;;;;;;19.55;nan;99863.84;5074200;28;20462;-78
2023/05/18 09:07:42;;;;;;;7.23;3.47;;;;;;;19.47;nan;99861.09;5075021;28;20475;-79
2023/05/18 09:10:10;;;;;;;4.20;2.73;;;;;;;19.49;nan;99860.94;5074535;28;20471;-79
2023/05/18 09:12:37;;;;;;;4.60;3.27;;;;;;;19.40;nan;99863.50;5057194;28;20475;-78
2023/05/18 09:15:03;;;;;;;3.03;2.73;;;;;;;19.35;nan;99856.94;5075197;28;20574;-78
2023/05/18 09:17:28;;;;;;;4.43;3.17;;;;;;;19.54;nan;99859.50;5072553;28;20529;-78
2023/05/18 09:19:54;;;;;;;12.50;3.73;;;;;;;19.66;nan;99865.50;5070479;28;20325;-78
2023/05/18 09:22:19;;;;;;;4.17;2.97;;;;;;;19.84;nan;99854.84;5071684;28;20681;-78
2023/05/18 09:24:45;;;;;;;6.20;2.83;;;;;;;19.98;nan;99858.81;5075586;28;20786;-78
2023/05/18 09:27:10;;;;;;;5.30;3.60;;;;;;;19.97;nan;99844.66;5049902;28;20737;-81
2023/05/18 09:29:51;;;;;;;4.03;2.90;;;;;;;19.98;nan;99853.47;5075566;28;20875;-85
2023/05/18 09:32:16;;;;;;;3.20;2.90;;;;;;;20.11;nan;99851.28;5077625;28;20207;-81
2023/05/18 09:34:44;;;;;;;6.50;2.87;;;;;;;20.26;nan;99857.75;5078738;28;20768;-85
2023/05/18 09:37:09;;;;;;;7.37;3.20;;;;;;;20.22;nan;99856.38;5080553;28;20248;-84
2023/05/18 09:39:35;;;;;;;3.70;3.00;;;;;;;20.00;nan;99851.50;5077712;28;20475;-81
2023/05/18 09:42:02;;;;;;;3.07;2.87;;;;;;;20.06;nan;99867.75;5081111;28;20306;-83
2023/05/18 09:44:33;;;;;;;4.07;3.20;;;;;;;20.20;nan;99857.50;5081488;28;20566;-80
2023/05/18 09:46:58;;;;;;;3.70;2.60;;;;;;;20.28;nan;99846.91;5079473;28;20546;-83
2023/05/18 09:49:24;;;;;;;3.07;2.63;;;;;;;20.50;nan;99843.75;5077295;28;20520;-85
2023/05/18 09:51:49;;;;;;;3.30;2.20;;;;;;;20.67;nan;99849.25;5076604;28;20212;-81
2023/05/18 09:54:15;;;;;;;3.67;2.53;;;;;;;20.81;nan;99851.31;5077137;28;20206;-83
2023/05/18 09:56:43;;;;;;;4.67;4.23;;;;;;;20.97;nan;99843.41;5075075;28;20206;-83
2023/05/18 09:59:11;;;;;;;3.93;2.40;;;;;;;20.93;nan;99843.91;5076865;28;20211;-82
2023/05/18 10:02:10;;;;;;;4.83;3.57;;;;;;;20.85;nan;99846.53;5075058;28;20461;-83
2023/05/18 10:04:41;;;;;;;6.70;3.75;;;;;;;20.84;nan;99843.00;5077657;28;20502;-81
2023/05/18 10:07:14;;;;;;;6.43;3.43;;;;;;;20.63;nan;99845.19;5072465;28;20208;-82
2023/05/18 10:09:42;;;;;;;3.60;2.90;;;;;;;20.85;nan;99842.03;5074376;28;20448;-87
2023/05/18 10:12:16;;;;;;;4.07;3.30;;;;;;;20.98;nan;99831.75;5072846;28;20569;-83
2023/05/18 10:14:44;;;;;;;3.73;3.30;;;;;;;20.86;nan;99837.50;5074801;28;20515;-80
2023/05/18 10:17:14;;;;;;;6.80;2.90;;;;;;;20.88;nan;99846.22;5075668;28;20835;-78
2023/05/18 10:19:41;;;;;;;7.67;3.27;;;;;;;21.00;nan;99842.25;5071659;28;20519;-79
2023/05/18 10:22:08;;;;;;;4.73;2.67;;;;;;;21.12;nan;99849.00;5074654;28;20483;-79
2023/05/18 10:24:37;;;;;;;6.63;2.83;;;;;;;21.14;nan;99838.16;5079300;28;20548;-79
2023/05/18 10:27:06;;;;;;;4.20;2.77;;;;;;;21.08;nan;99842.28;5077001;28;20449;-80
2023/05/18 10:29:34;;;;;;;4.80;3.40;;;;;;;20.93;nan;99841.25;5071929;28;20504;-79
2023/05/18 10:32:02;;;;;;;4.10;3.30;;;;;;;20.59;nan;99836.69;5071929;28;20530;-80
2023/05/18 10:34:35;;;;;;;5.00;3.20;;;;;;;20.39;nan;99844.03;5072957;28;20474;-80
2023/05/18 10:37:04;;;;;;;5.20;2.80;;;;;;;20.50;nan;99842.94;5071349;28;20477;-80
2023/05/18 10:39:32;;;;;;;3.63;3.10;;;;;;;20.41;nan;99843.84;5074509;28;20468;-79
2023/05/18 10:42:01;;;;;;;3.70;3.20;;;;;;;20.36;nan;99841.66;5072467;28;21147;-79
2023/05/18 10:44:26;;;;;;;7.27;3.23;;;;;;;20.38;nan;99838.81;5076172;28;20475;-80
2023/05/18 10:46:53;;;;;;;7.53;3.77;;;;;;;20.50;nan;99838.44;5080774;28;20456;-81
2023/05/18 10:49:22;;;;;;;4.17;2.60;;;;;;;20.82;nan;99839.69;5081636;28;20483;-81
2023/05/18 10:51:48;;;;;;;5.37;3.27;;;;;;;21.00;nan;99835.06;5078444;28;20446;-81
2023/05/18 10:54:14;;;;;;;5.70;3.17;;;;;;;21.22;nan;99827.50;5081371;28;20485;-81
2023/05/18 10:56:46;;;;;;;5.53;2.63;;;;;;;21.41;nan;99824.63;5080727;28;20964;-81
2023/05/18 10:59:13;;;;;;;5.87;2.87;;;;;;;21.56;nan;99834.66;5079651;28;20211;-81
2023/05/18 11:01:41;;;;;;;5.60;2.83;;;;;;;21.58;nan;99841.53;5079304;28;20435;-81
2023/05/18 11:04:06;;;;;;;4.17;2.80;;;;;;;21.24;nan;99824.69;5080426;28;20427;-81
2023/05/18 11:06:34;;;;;;;3.13;2.83;;;;;;;21.15;nan;99821.13;5080062;28;20410;-81
2023/05/18 11:09:00;;;;;;;4.03;2.87;;;;;;;21.01;nan;99827.94;5077981;28;20205;-81
2023/05/18 11:11:28;;;;;;;4.20;2.87;;;;;;;20.98;nan;99823.75;5079921;28;21049;-81
2023/05/18 11:14:00;;;;;;;4.63;3.10;;;;;;;20.99;nan;99827.25;5079281;28;20481;-81
2023/05/18 11:16:36;;;;;;;3.47;2.60;;;;;;;21.21;nan;99824.00;5080392;28;21006;-81
2023/05/18 11:19:06;;;;;;;6.50;3.30;;;;;;;21.22;nan;99819.47;5079788;28;20457;-81
2023/05/18 11:21:34;;;;;;;3.67;3.27;;;;;;;21.12;nan;99826.81;5077109;28;20523;-81
2023/05/18 11:24:13;;;;;;;3.90;3.00;;;;;;;20.88;nan;99822.19;5077887;28;20500;-78
2023/05/18 11:26:45;;;;;;;3.27;2.57;;;;;;;21.02;nan;99818.91;5076901;28;20503;-78
2023/05/18 11:29:28;;;;;;;3.60;2.70;;;;;;;21.22;nan;99822.16;5076597;28;20477;-78
2023/05/18 11:31:54;;;;;;;2.20;2.00;;;;;;;21.26;nan;99828.03;5076162;28;20463;-80
2023/05/18 11:34:43;;;;;;;3.53;3.27;;;;;;;21.27;nan;99825.19;5079076;28;20570;-80
2023/05/18 11:37:11;;;;;;;3.07;2.57;;;;;;;21.14;nan;99814.97;5079147;28;20466;-80
2023/05/18 11:39:37;;;;;;;2.83;2.53;;;;;;;20.95;nan;99809.84;5077532;28;20458;-80
2023/05/18 11:42:11;;;;;;;3.83;2.87;;;;;;;20.88;nan;99811.50;5078956;28;20992;-80
2023/05/18 11:44:40;;;;;;;5.97;3.10;;;;;;;20.70;nan;99811.56;5058093;28;20208;-80
2023/05/18 11:47:10;;;;;;;4.87;3.27;;;;;;;20.69;nan;99820.56;5079415;28;20569;-81
2023/05/18 11:49:46;;;;;;;2.67;2.47;;;;;;;20.75;nan;99812.75;5079973;28;20550;-80
2023/05/18 11:52:21;;;;;;;3.20;2.90;;;;;;;21.00;nan;99812.88;5072285;28;20474;-80
2023/05/18 11:55:00;;;;;;;4.23;2.83;;;;;;;21.13;nan;99804.44;5076570;28;20546;-80
2023/05/18 11:57:38;;;;;;;3.53;2.80;;;;;;;21.14;nan;99806.09;5078459;28;21399;-80